createdAt,value
2022-12-18T00:01:15.124Z,26.65
2022-12-18T00:03:43.143Z,21.60
2022-12-18T00:06:09.949Z,22.65
2022-12-18T00:08:36.335Z,23.85
2022-12-18T00:11:04.189Z,22.25
2022-12-18T00:13:33.929Z,21.55
2022-12-18T00:16:02.688Z,23.98
2022-12-18T00:18:29.218Z,29.20
2022-12-18T00:20:59.086Z,29.55
2022-12-18T00:23:25.573Z,20.67
2022-12-18T00:25:52.070Z,20.60
2022-12-18T00:28:18.331Z,29.92
2022-12-18T00:30:45.929Z,22.33
2022-12-18T00:33:12.236Z,27.70
2022-12-18T00:35:38.645Z,19.77
2022-12-18T00:38:06.492Z,30.52
2022-12-18T00:40:32.871Z,18.50
2022-12-18T00:42:59.166Z,29.45
2022-12-18T00:45:27.509Z,20.92
2022-12-18T00:47:53.876Z,30.90
2022-12-18T00:50:20.170Z,19.33
2022-12-18T00:52:46.455Z,25.05
2022-12-18T00:55:14.425Z,19.65
2022-12-18T00:57:40.869Z,23.43
2022-12-18T01:00:08.254Z,20.77
2022-12-18T01:02:35.119Z,28.42
2022-12-18T01:05:03.392Z,28.70
2022-12-18T01:07:29.638Z,20.13
2022-12-18T01:09:55.943Z,25.10
2022-12-18T01:12:23.623Z,30.55
2022-12-18T01:14:50.577Z,28.38
2022-12-18T01:17:16.902Z,23.30
2022-12-18T01:19:43.154Z,18.50
2022-12-18T01:22:10.220Z,25.05
2022-12-18T01:24:37.570Z,24.20
2022-12-18T01:27:03.860Z,20.50
2022-12-18T01:29:31.850Z,23.92
2022-12-18T01:31:58.352Z,21.20
2022-12-18T01:34:24.805Z,23.75
2022-12-18T01:36:51.110Z,20.98
2022-12-18T01:39:17.455Z,21.27
2022-12-18T01:41:43.728Z,20.30
2022-12-18T01:44:25.041Z,21.13
2022-12-18T01:46:55.505Z,27.60
2022-12-18T01:49:21.894Z,21.35
2022-12-18T01:51:48.306Z,20.23
2022-12-18T01:54:18.003Z,22.55
2022-12-18T01:56:46.187Z,21.15
2022-12-18T01:59:13.781Z,22.70
2022-12-18T02:01:40.704Z,24.15
2022-12-18T02:04:30.564Z,22.40
2022-12-18T02:07:03.673Z,26.33
2022-12-18T02:09:32.788Z,27.80
2022-12-18T02:14:29.560Z,18.67
2022-12-18T02:17:00.610Z,22.05
2022-12-18T02:19:45.039Z,24.65
2022-12-18T02:22:26.065Z,16.75
2022-12-18T02:24:59.520Z,24.33
2022-12-18T02:27:28.788Z,20.88
2022-12-18T02:29:58.491Z,24.65
2022-12-18T02:32:28.499Z,18.52
2022-12-18T02:34:57.060Z,23.98
2022-12-18T02:37:26.268Z,20.42
2022-12-18T02:39:55.033Z,26.33
2022-12-18T02:42:22.427Z,21.42
2022-12-18T02:44:50.972Z,21.17
2022-12-18T02:47:24.722Z,22.60
2022-12-18T02:49:55.850Z,18.08
2022-12-18T02:52:26.266Z,19.80
2022-12-18T02:54:58.215Z,25.48
2022-12-18T02:57:29.159Z,27.05
2022-12-18T03:00:01.351Z,24.55
2022-12-18T03:02:30.617Z,26.45
2022-12-18T03:04:58.633Z,23.23
2022-12-18T03:07:28.801Z,27.77
2022-12-18T03:09:57.230Z,28.17
2022-12-18T03:12:25.650Z,17.85
2022-12-18T03:14:58.857Z,20.50
2022-12-18T03:17:28.799Z,23.17
2022-12-18T03:19:57.405Z,23.88
2022-12-18T03:22:24.554Z,24.35
2022-12-18T03:24:53.810Z,24.02
2022-12-18T03:27:21.726Z,21.73
2022-12-18T03:29:52.602Z,22.48
2022-12-18T03:32:26.814Z,23.35
2022-12-18T03:34:56.096Z,21.67
2022-12-18T03:37:23.242Z,24.25
2022-12-18T03:42:25.669Z,23.70
2022-12-18T03:45:01.131Z,21.90
2022-12-18T03:47:29.080Z,23.98
2022-12-18T03:50:06.061Z,21.13
2022-12-18T03:52:37.312Z,19.40
2022-12-18T03:55:05.875Z,19.40
2022-12-18T03:57:33.774Z,26.50
2022-12-18T04:00:02.776Z,19.65
2022-12-18T04:02:42.224Z,31.88
2022-12-18T04:05:11.356Z,19.88
2022-12-18T04:07:40.856Z,18.70
2022-12-18T04:10:10.414Z,18.15
2022-12-18T04:12:37.986Z,18.35
2022-12-18T04:15:05.000Z,24.98
2022-12-18T04:17:31.702Z,20.73
2022-12-18T04:19:58.246Z,21.52
2022-12-18T04:22:26.406Z,21.85
2022-12-18T04:24:58.716Z,27.83
2022-12-18T04:27:31.697Z,27.98
2022-12-18T04:29:59.512Z,30.45
2022-12-18T04:32:25.832Z,23.98
2022-12-18T04:34:52.403Z,26.42
2022-12-18T04:37:18.784Z,22.95
2022-12-18T04:39:46.540Z,24.40
2022-12-18T04:42:20.427Z,21.10
2022-12-18T04:44:46.753Z,27.10
2022-12-18T04:47:13.095Z,21.20
2022-12-18T04:49:39.415Z,35.22
2022-12-18T04:52:05.703Z,20.30
2022-12-18T04:54:32.236Z,24.30
2022-12-18T04:56:59.981Z,23.30
2022-12-18T04:59:26.629Z,30.35
2022-12-18T05:01:53.026Z,23.42
2022-12-18T05:04:20.480Z,21.65
2022-12-18T05:06:46.910Z,22.65
2022-12-18T05:09:13.651Z,19.58
2022-12-18T05:11:39.951Z,24.60
2022-12-18T05:14:07.652Z,25.23
2022-12-18T05:16:34.000Z,26.27
2022-12-18T05:19:00.403Z,25.00
2022-12-18T05:21:26.764Z,21.85
2022-12-18T05:23:53.404Z,22.17
2022-12-18T05:26:20.044Z,18.05
2022-12-18T05:28:47.136Z,20.92
2022-12-18T05:31:15.242Z,29.75
2022-12-18T05:33:41.924Z,24.10
2022-12-18T05:36:09.208Z,24.95
2022-12-18T05:38:36.380Z,20.05
2022-12-18T05:41:03.025Z,16.63
2022-12-18T05:43:30.348Z,29.55
2022-12-18T05:45:56.960Z,20.10
2022-12-18T05:48:24.892Z,25.08
2022-12-18T05:50:51.216Z,19.35
2022-12-18T05:53:21.138Z,26.92
2022-12-18T05:55:48.035Z,23.73
2022-12-18T05:58:14.646Z,23.77
2022-12-18T06:00:44.073Z,24.98
2022-12-18T06:03:11.759Z,32.67
2022-12-18T06:05:40.661Z,25.60
2022-12-18T06:08:07.204Z,24.48
2022-12-18T06:10:33.510Z,29.95
2022-12-18T06:12:59.857Z,32.45
2022-12-18T06:15:29.009Z,26.00
2022-12-18T06:17:55.306Z,20.58
2022-12-18T06:20:21.687Z,24.90
2022-12-18T06:22:49.369Z,25.92
2022-12-18T06:25:16.178Z,24.53
2022-12-18T06:27:42.529Z,29.90
2022-12-18T06:30:10.163Z,27.60
2022-12-18T06:32:36.600Z,31.55
2022-12-18T06:35:03.066Z,27.42
2022-12-18T06:37:29.358Z,30.10
2022-12-18T06:39:57.043Z,26.63
2022-12-18T06:42:23.575Z,25.38
2022-12-18T06:44:50.207Z,31.00
2022-12-18T06:47:16.542Z,33.15
2022-12-18T06:49:43.734Z,24.25
2022-12-18T06:52:10.082Z,27.77
2022-12-18T06:54:36.381Z,27.13
2022-12-18T06:57:04.109Z,27.42
2022-12-18T06:59:30.434Z,28.55
2022-12-18T07:01:56.822Z,31.17
2022-12-18T07:04:23.290Z,29.33
2022-12-18T07:06:49.620Z,30.38
2022-12-18T07:09:15.940Z,24.95
2022-12-18T07:11:42.262Z,20.98
2022-12-18T07:14:10.032Z,32.78
2022-12-18T07:16:36.446Z,48.83
2022-12-18T07:19:03.109Z,31.35
2022-12-18T07:21:29.576Z,29.17
2022-12-18T07:23:55.938Z,32.42
2022-12-18T07:26:22.642Z,37.17
2022-12-18T07:28:49.259Z,24.73
2022-12-18T07:31:18.248Z,25.60
2022-12-18T07:33:44.639Z,31.42
2022-12-18T07:36:11.387Z,24.58
2022-12-18T07:38:38.211Z,21.95
2022-12-18T07:41:06.725Z,27.00
2022-12-18T07:43:33.318Z,19.85
2022-12-18T07:45:59.652Z,20.77
2022-12-18T07:48:28.223Z,24.10
2022-12-18T07:50:54.524Z,23.90
2022-12-18T07:53:20.855Z,30.75
2022-12-18T07:56:25.083Z,24.02
2022-12-18T07:58:37.572Z,17.83
2022-12-18T08:03:31.444Z,27.17
2022-12-18T08:05:59.451Z,25.35
2022-12-18T08:08:25.833Z,21.10
2022-12-18T08:10:52.216Z,26.77
2022-12-18T08:13:18.492Z,27.63
2022-12-18T08:15:45.052Z,24.65
2022-12-18T08:18:14.304Z,25.55
2022-12-18T08:20:42.205Z,26.38
2022-12-18T08:23:08.636Z,22.17
2022-12-18T08:25:35.242Z,21.67
2022-12-18T08:28:01.676Z,23.67
2022-12-18T08:30:28.085Z,34.53
2022-12-18T08:32:54.524Z,23.00
2022-12-18T08:35:20.833Z,19.88
2022-12-18T08:37:48.573Z,25.52
2022-12-18T08:40:15.046Z,35.13
2022-12-18T08:42:42.135Z,27.27
2022-12-18T08:45:09.129Z,23.70
2022-12-18T08:47:35.528Z,36.80
2022-12-18T08:50:01.828Z,27.77
2022-12-18T08:52:28.112Z,26.70
2022-12-18T08:54:55.784Z,24.90
2022-12-18T08:57:22.630Z,22.90
2022-12-18T08:59:48.932Z,25.00
2022-12-18T09:02:15.435Z,21.80
2022-12-18T09:04:41.859Z,21.90
2022-12-18T09:07:08.228Z,24.25
2022-12-18T09:09:34.565Z,23.38
2022-12-18T09:12:02.213Z,34.47
2022-12-18T09:14:28.609Z,27.35
2022-12-18T09:16:55.039Z,29.73
2022-12-18T09:19:21.430Z,34.28
2022-12-18T09:21:48.595Z,22.95
2022-12-18T09:24:15.592Z,22.40
2022-12-18T09:26:41.913Z,28.48
2022-12-18T09:29:11.323Z,19.23
2022-12-18T09:31:38.716Z,25.02
2022-12-18T09:34:05.055Z,20.42
2022-12-18T09:36:31.657Z,23.27
2022-12-18T09:39:02.551Z,22.45
2022-12-18T09:41:40.052Z,21.95
2022-12-18T09:44:12.037Z,22.70
2022-12-18T09:46:43.735Z,28.55
2022-12-18T09:49:13.505Z,20.75
2022-12-18T09:51:42.524Z,25.05
2022-12-18T09:56:36.254Z,25.80
2022-12-18T09:59:03.745Z,27.50
2022-12-18T10:01:41.368Z,23.38
2022-12-18T10:04:11.960Z,26.35
2022-12-18T10:06:42.034Z,18.98
2022-12-18T10:09:12.207Z,23.15
2022-12-18T10:11:44.090Z,24.25
2022-12-18T10:14:15.702Z,22.73
2022-12-18T10:16:45.617Z,32.25
2022-12-18T10:19:18.846Z,23.42
2022-12-18T10:21:50.052Z,19.63
2022-12-18T10:24:21.920Z,19.55
2022-12-18T10:26:48.291Z,24.67
2022-12-18T10:29:15.539Z,27.60
2022-12-18T10:31:42.080Z,20.38
2022-12-18T10:34:10.504Z,32.33
2022-12-18T10:36:38.180Z,21.77
2022-12-18T10:39:15.096Z,24.60
2022-12-18T10:41:41.423Z,23.83
2022-12-18T10:44:17.155Z,24.52
2022-12-18T10:46:43.844Z,23.42
2022-12-18T10:49:19.799Z,21.02
2022-12-18T10:51:47.548Z,22.25
2022-12-18T10:54:15.644Z,21.38
2022-12-18T10:56:42.072Z,23.73
2022-12-18T10:59:11.471Z,21.17
2022-12-18T11:01:48.594Z,23.38
2022-12-18T11:04:17.407Z,20.05
2022-12-18T11:06:55.208Z,22.23
2022-12-18T11:09:22.541Z,21.10
2022-12-18T11:11:49.367Z,18.65
2022-12-18T11:14:19.310Z,18.35
2022-12-18T11:17:03.057Z,22.73
2022-12-18T11:19:32.536Z,21.30
2022-12-18T11:24:28.500Z,22.55
2022-12-18T11:26:59.506Z,19.30
2022-12-18T11:29:30.260Z,24.42
2022-12-18T11:32:13.564Z,24.92
2022-12-18T11:34:40.425Z,25.67
2022-12-18T11:37:09.545Z,23.17
2022-12-18T11:39:38.489Z,27.65
2022-12-18T11:42:06.363Z,24.83
2022-12-18T11:44:36.356Z,28.02
2022-12-18T11:47:04.676Z,26.98
2022-12-18T11:49:33.658Z,21.25
2022-12-18T11:52:01.439Z,27.63
2022-12-18T11:54:27.784Z,21.70
2022-12-18T11:56:56.973Z,26.50
2022-12-18T11:59:30.423Z,24.00
2022-12-18T12:02:00.471Z,24.90
2022-12-18T12:04:44.533Z,25.42
2022-12-18T12:07:18.064Z,28.48
2022-12-18T12:09:48.252Z,23.92
2022-12-18T12:12:25.565Z,24.63
2022-12-18T12:14:56.469Z,24.52
2022-12-18T12:17:28.808Z,25.42
2022-12-18T12:19:59.685Z,27.85
2022-12-18T12:22:31.953Z,24.33
2022-12-18T12:25:03.549Z,22.15
2022-12-18T12:27:37.203Z,22.65
2022-12-18T12:30:05.849Z,24.48
2022-12-18T12:32:44.953Z,20.05
2022-12-18T12:35:19.009Z,26.00
2022-12-18T12:37:49.422Z,30.38
2022-12-18T12:40:49.156Z,25.50
2022-12-18T12:43:11.213Z,24.92
2022-12-18T12:45:40.010Z,25.77
2022-12-18T12:50:34.510Z,22.15
2022-12-18T12:53:02.270Z,26.55
2022-12-18T12:55:29.525Z,25.83
2022-12-18T12:57:58.697Z,32.45
2022-12-18T13:00:28.713Z,24.88
2022-12-18T13:02:59.993Z,25.55
2022-12-18T13:05:29.145Z,25.25
2022-12-18T13:08:00.097Z,17.25
2022-12-18T13:10:33.885Z,28.05
2022-12-18T13:13:01.895Z,30.80
2022-12-18T13:15:38.099Z,24.65
2022-12-18T13:18:16.722Z,24.45
2022-12-18T13:20:46.622Z,36.70
2022-12-18T13:23:27.961Z,24.38
2022-12-18T13:25:54.796Z,27.67
2022-12-18T13:28:21.847Z,32.42
2022-12-18T13:30:59.084Z,35.83
2022-12-18T13:33:56.324Z,25.27
2022-12-18T13:36:30.603Z,28.48
2022-12-18T13:39:10.711Z,26.98
2022-12-18T13:41:37.576Z,28.05
2022-12-18T13:44:11.785Z,30.95
2022-12-18T13:46:45.015Z,29.42
2022-12-18T13:49:21.659Z,34.13
2022-12-18T13:51:49.054Z,29.88
2022-12-18T13:54:19.749Z,26.98
2022-12-18T13:56:47.334Z,26.48
2022-12-18T13:59:16.028Z,28.47
2022-12-18T14:01:45.180Z,27.15
2022-12-18T14:04:13.153Z,28.77
2022-12-18T14:06:40.124Z,27.88
2022-12-18T14:09:06.429Z,28.30
2022-12-18T14:11:35.971Z,28.02
2022-12-18T14:14:02.429Z,31.95
2022-12-18T14:16:29.272Z,28.17
2022-12-18T14:19:02.679Z,30.45
2022-12-18T14:21:45.948Z,28.77
2022-12-18T14:24:14.379Z,28.88
2022-12-18T14:26:41.337Z,27.88
2022-12-18T14:29:24.260Z,32.38
2022-12-18T14:32:16.938Z,34.95
2022-12-18T14:34:45.996Z,30.38
2022-12-18T14:37:13.400Z,25.92
2022-12-18T14:39:39.833Z,28.08
2022-12-18T14:42:06.247Z,32.15
2022-12-18T14:44:44.127Z,29.30
2022-12-18T14:47:18.193Z,32.17
2022-12-18T14:49:45.961Z,33.65
2022-12-18T14:52:21.878Z,26.05
2022-12-18T14:54:48.499Z,29.63
2022-12-18T14:57:23.391Z,30.45
2022-12-18T14:59:49.780Z,30.45
2022-12-18T15:02:20.731Z,27.92
2022-12-18T15:04:48.820Z,29.95
2022-12-18T15:07:16.422Z,42.35
2022-12-18T15:10:00.842Z,30.05
2022-12-18T15:12:33.554Z,30.85
2022-12-18T15:14:59.868Z,26.95
2022-12-18T15:17:26.891Z,38.88
2022-12-18T15:20:01.092Z,40.35
2022-12-18T15:22:28.277Z,26.63
2022-12-18T15:24:55.170Z,33.88
2022-12-18T15:27:22.294Z,37.03
2022-12-18T15:30:00.393Z,30.88
2022-12-18T15:32:26.773Z,36.03
2022-12-18T15:35:03.640Z,29.15
2022-12-18T15:37:29.927Z,34.33
2022-12-18T15:39:56.578Z,37.50
2022-12-18T15:42:22.932Z,36.63
2022-12-18T15:44:49.292Z,32.38
2022-12-18T15:47:15.649Z,30.23
2022-12-18T15:49:42.169Z,39.13
2022-12-18T15:52:12.160Z,35.03
2022-12-18T15:54:38.488Z,37.53
2022-12-18T15:57:04.788Z,28.55
2022-12-18T15:59:31.096Z,40.17
2022-12-18T16:01:57.499Z,34.92
2022-12-18T16:04:24.316Z,31.58
2022-12-18T16:07:14.023Z,43.63
2022-12-18T16:09:38.799Z,31.33
2022-12-18T16:12:05.328Z,28.27
2022-12-18T16:14:32.180Z,30.77
2022-12-18T16:16:59.868Z,35.72
2022-12-18T16:19:26.950Z,33.63
2022-12-18T16:21:54.808Z,37.67
2022-12-18T16:24:22.138Z,33.85
2022-12-18T16:26:50.038Z,35.40
2022-12-18T16:29:16.642Z,33.75
2022-12-18T16:31:43.156Z,42.63
2022-12-18T16:34:29.721Z,37.17
2022-12-18T16:37:00.279Z,37.00
2022-12-18T16:39:31.079Z,30.55
2022-12-18T16:41:58.720Z,24.58
2022-12-18T16:44:25.754Z,34.75
2022-12-18T16:46:52.067Z,33.47
2022-12-18T16:49:19.227Z,34.40
2022-12-18T16:51:46.391Z,41.30
2022-12-18T16:54:18.654Z,32.85
2022-12-18T16:56:45.447Z,41.15
2022-12-18T16:59:13.048Z,36.88
2022-12-18T17:01:39.433Z,31.60
2022-12-18T17:04:06.423Z,29.55
2022-12-18T17:06:33.797Z,34.63
2022-12-18T17:09:01.071Z,39.28
2022-12-18T17:11:28.251Z,41.97
2022-12-18T17:13:55.686Z,34.00
2022-12-18T17:16:25.897Z,36.80
2022-12-18T17:18:52.791Z,36.70
2022-12-18T17:21:19.409Z,42.10
2022-12-18T17:23:45.804Z,36.97
2022-12-18T17:26:12.776Z,34.97
2022-12-18T17:28:40.030Z,42.40
2022-12-18T17:31:10.751Z,37.85
2022-12-18T17:33:38.886Z,50.55
2022-12-18T17:36:06.628Z,33.65
2022-12-18T17:38:32.939Z,34.65
2022-12-18T17:41:00.357Z,42.67
2022-12-18T17:43:27.007Z,35.85
2022-12-18T17:45:53.280Z,38.72
2022-12-18T17:48:19.536Z,39.67
2022-12-18T17:50:47.425Z,33.60
2022-12-18T17:53:13.799Z,45.30
2022-12-18T17:55:40.077Z,41.88
2022-12-18T17:58:06.490Z,36.17
2022-12-18T18:00:33.020Z,39.00
2022-12-18T18:02:59.592Z,46.72
2022-12-18T18:05:26.220Z,43.67
2022-12-18T18:07:53.863Z,40.17
2022-12-18T18:10:20.382Z,44.05
2022-12-18T18:12:46.699Z,33.63
2022-12-18T18:15:13.181Z,39.55
2022-12-18T18:17:40.000Z,39.22
2022-12-18T18:20:06.654Z,35.75
2022-12-18T18:22:33.149Z,40.58
2022-12-18T18:25:01.634Z,40.33
2022-12-18T18:27:28.278Z,38.75
2022-12-18T18:29:54.625Z,39.13
2022-12-18T18:32:20.930Z,34.42
2022-12-18T18:34:47.333Z,38.17
2022-12-18T18:37:13.776Z,32.72
2022-12-18T18:39:40.301Z,43.67
2022-12-18T18:42:08.186Z,41.20
2022-12-18T18:44:34.574Z,41.47
2022-12-18T18:47:00.955Z,44.50
2022-12-18T18:49:29.066Z,39.37
2022-12-18T18:51:56.255Z,46.65
2022-12-18T18:54:22.563Z,36.35
2022-12-18T18:59:41.603Z,39.58
2022-12-18T19:02:09.025Z,36.47
2022-12-18T19:04:35.469Z,42.40
2022-12-18T19:07:04.065Z,31.20
2022-12-18T19:09:30.331Z,44.22
2022-12-18T19:11:56.843Z,47.03
2022-12-18T19:14:23.300Z,37.80
2022-12-18T19:16:51.026Z,59.13
2022-12-18T19:19:17.502Z,37.97
2022-12-18T19:21:43.873Z,52.13
2022-12-18T19:24:10.319Z,41.58
2022-12-18T19:26:36.614Z,32.90
2022-12-18T19:29:03.172Z,35.92
2022-12-18T19:31:35.179Z,42.80
2022-12-18T19:34:04.372Z,37.47
2022-12-18T19:36:31.063Z,42.33
2022-12-18T19:38:58.358Z,36.88
2022-12-18T19:41:25.558Z,30.95
2022-12-18T19:43:52.627Z,39.28
2022-12-18T19:46:19.592Z,35.95
2022-12-18T19:48:46.503Z,42.72
2022-12-18T19:51:15.251Z,43.13
2022-12-18T19:53:41.514Z,41.72
2022-12-18T19:56:10.725Z,35.50
2022-12-18T19:58:37.183Z,36.70
2022-12-18T20:01:03.644Z,37.55
2022-12-18T20:03:35.315Z,36.97
2022-12-18T20:06:09.079Z,32.83
2022-12-18T20:08:36.770Z,38.83
2022-12-18T20:11:03.057Z,42.10
2022-12-18T20:13:29.742Z,50.63
2022-12-18T20:15:56.021Z,37.80
2022-12-18T20:18:22.357Z,35.92
2022-12-18T20:20:48.853Z,41.13
2022-12-18T20:23:16.969Z,45.50
2022-12-18T20:25:44.706Z,35.80
2022-12-18T20:28:11.126Z,45.50
2022-12-18T20:30:37.443Z,36.90
2022-12-18T20:33:03.879Z,36.25
2022-12-18T20:35:31.502Z,40.53
2022-12-18T20:37:59.022Z,35.45
2022-12-18T20:40:27.267Z,36.45
2022-12-18T20:42:54.950Z,36.40
2022-12-18T20:45:21.249Z,44.45
2022-12-18T20:47:47.521Z,48.00
2022-12-18T20:50:13.893Z,45.88
2022-12-18T20:52:40.197Z,38.30
2022-12-18T20:55:06.795Z,34.35
2022-12-18T20:57:33.086Z,39.03
2022-12-18T21:00:00.790Z,35.97
2022-12-18T21:02:27.382Z,37.35
2022-12-18T21:04:53.748Z,37.45
2022-12-18T21:07:20.076Z,40.35
2022-12-18T21:09:46.336Z,30.98
2022-12-18T21:12:14.329Z,37.97
2022-12-18T21:14:41.267Z,41.00
2022-12-18T21:17:08.971Z,45.25
2022-12-18T21:19:35.420Z,38.13
2022-12-18T21:22:02.058Z,37.90
2022-12-18T21:24:28.861Z,36.22
2022-12-18T21:27:00.648Z,39.83
2022-12-18T21:29:27.141Z,46.53
2022-12-18T21:31:53.657Z,41.22
2022-12-18T21:34:23.359Z,36.17
2022-12-18T21:36:49.708Z,40.47
2022-12-18T21:39:16.689Z,42.00
2022-12-18T21:41:43.521Z,43.97
2022-12-18T21:44:11.012Z,36.80
2022-12-18T21:46:38.388Z,49.05
2022-12-18T21:49:05.409Z,38.53
2022-12-18T21:51:33.413Z,42.58
2022-12-18T21:53:59.883Z,40.58
2022-12-18T21:56:42.086Z,45.65
2022-12-18T21:59:08.374Z,39.78
2022-12-18T22:01:38.003Z,39.97
2022-12-18T22:04:04.503Z,39.95
2022-12-18T22:06:30.866Z,37.42
2022-12-18T22:08:58.501Z,49.90
2022-12-18T22:11:24.784Z,43.00
2022-12-18T22:13:51.557Z,42.03
2022-12-18T22:16:17.888Z,42.47
2022-12-18T22:18:44.232Z,49.45
2022-12-18T22:21:25.541Z,37.08
2022-12-18T22:23:55.765Z,39.38
2022-12-18T22:26:24.109Z,38.28
2022-12-18T22:28:50.592Z,55.42
2022-12-18T22:31:16.914Z,44.30
2022-12-18T22:33:43.217Z,37.95
2022-12-18T22:36:11.039Z,44.60
2022-12-18T22:38:37.319Z,44.22
2022-12-18T22:41:03.610Z,47.10
2022-12-18T22:43:31.231Z,41.83
2022-12-18T22:45:57.596Z,39.47
2022-12-18T22:48:24.080Z,60.67
2022-12-18T22:50:50.346Z,42.72
2022-12-18T22:53:19.697Z,45.75
2022-12-18T22:55:46.057Z,49.88
2022-12-18T22:58:12.378Z,47.08
2022-12-18T23:00:40.027Z,42.15
2022-12-18T23:03:07.267Z,44.83
2022-12-18T23:05:33.831Z,40.75
2022-12-18T23:08:00.450Z,44.05
2022-12-18T23:10:27.145Z,47.50
2022-12-18T23:12:53.465Z,41.10
2022-12-18T23:15:27.707Z,47.03
2022-12-18T23:17:56.111Z,46.15
2022-12-18T23:20:22.491Z,45.05
2022-12-18T23:22:48.747Z,49.25
2022-12-18T23:25:15.052Z,45.78
2022-12-18T23:27:41.354Z,52.15
2022-12-18T23:30:08.137Z,53.25
2022-12-18T23:32:37.511Z,41.13
2022-12-18T23:35:05.772Z,40.05
2022-12-18T23:37:58.175Z,53.92
2022-12-18T23:40:20.101Z,45.70
2022-12-18T23:42:46.364Z,42.45
2022-12-18T23:45:18.107Z,41.83
2022-12-18T23:47:44.774Z,41.38
2022-12-18T23:50:14.829Z,46.42
2022-12-18T23:52:41.557Z,44.25
2022-12-18T23:55:08.303Z,46.30
2022-12-18T23:57:34.559Z,38.58
